首页
METAR-TAF:

METAR-TAF

机场 :

Mayo, 育康省, 加拿大

纬度: 63-37N, 经度: 135-52W, 海拔: 504米

当前天气观测

该预报发布于26分钟前的03:00 UTC
风速3节,风向北转东北,在东转东北之间变化
温度 -4°C
湿度 93%
气压 1005 hPa
能見度: 24.1公里
多云层高于5100英尺

METAR: CYMA 120300Z 03003KT 010V070 15SM BKN051 M04/M05 A2967 RMK SC8 SLP087

时间: 19:26 (03:26 UTC)

预报

该预报发布于3小时和48分钟前的23:38 UTC
预报有效从12日的 00点(UTC)到 12日的 12点(UTC)
风速3节,风向多变
能見度: 10公里
多云层高于5000英尺
短暂存在
从 12日的 00点(UTC)到 12日的 06点(UTC)
能見度: 10公里
少量云层高于1500英尺
阴天层高于4000英尺
小雪
从 12日的 0600点(UTC)
风速3节,风向多变
能見度: 10公里
少量云层高于1500英尺
散云层高于4000英尺
几率 30%
从 12日的 09点(UTC)到 12日的 12点(UTC)
多云层高于1000英尺

TAF: CYMA 112338Z 1200/1212 VRB03KT P6SM BKN050 TEMPO 1200/1206 P6SM -SN FEW015 OVC040 FM120600 VRB03KT P6SM FEW015 SCT040 PROB30 1209/1212 BKN010 RMK NXT FCST BY 120600Z

超过4000个机场的气象观测和天气预报(METAR&TAF报告)。

可查询的气象台以黄色和红色小点在地图上表示。

将鼠标移到小点上方,可查看气象台名称。

然后点击查看天气观测和预报。

如需切换地图:点击带黑十字的绿色按钮放大地图;点击带横线的绿色按钮缩小地图;或者点击绿色箭头查看邻近地区的地图。


METAR-TAF: